createdAt,value
2018-03-15T19:00:53.373Z,10.51
2018-03-15T19:02:54.880Z,10.55
2018-03-15T19:04:56.385Z,10.51
2018-03-15T19:06:57.871Z,10.51
2018-03-15T19:08:59.328Z,10.58
2018-03-15T19:11:00.933Z,10.60
2018-03-15T19:13:02.666Z,10.66
2018-03-15T19:15:04.086Z,10.47
2018-03-15T19:17:05.551Z,10.37
2018-03-15T19:19:06.965Z,10.34
2018-03-15T19:21:08.426Z,10.32
2018-03-15T19:23:09.884Z,10.26
2018-03-15T19:25:11.336Z,10.24
2018-03-15T19:27:12.798Z,10.28
2018-03-15T19:29:14.878Z,10.24
2018-03-15T19:31:16.329Z,10.15
2018-03-15T19:33:17.773Z,10.30
2018-03-15T19:35:19.194Z,10.09
2018-03-15T19:37:20.608Z,10.03
2018-03-15T19:39:22.109Z,10.04
2018-03-15T19:41:23.676Z,10.14
2018-03-15T19:43:25.096Z,10.22
2018-03-15T19:45:26.704Z,10.28
2018-03-15T19:47:28.250Z,10.28
2018-03-15T19:49:29.929Z,10.24
2018-03-15T19:51:31.611Z,10.37
2018-03-15T19:53:33.097Z,10.34
2018-03-15T19:55:34.555Z,10.33
2018-03-15T19:57:36.309Z,10.33
2018-03-15T19:59:38.059Z,10.34
2018-03-15T20:01:39.889Z,10.36
2018-03-15T20:03:41.598Z,10.22
2018-03-15T20:05:43.421Z,10.30
2018-03-15T20:07:44.968Z,10.04
2018-03-15T20:09:46.933Z,10.18
2018-03-15T20:11:48.607Z,10.15
2018-03-15T20:13:50.080Z,10.15
2018-03-15T20:15:51.570Z,10.18
2018-03-15T20:17:53.023Z,10.06
2018-03-15T20:19:54.464Z,10.18
2018-03-15T20:21:55.915Z,10.12
2018-03-15T20:23:57.321Z,9.91
2018-03-15T20:25:58.860Z,10.01
2018-03-15T20:28:00.327Z,9.71
2018-03-15T20:30:01.747Z,9.56
2018-03-15T20:32:03.231Z,9.64
2018-03-15T20:34:05.037Z,9.64
2018-03-15T20:36:06.554Z,9.66
2018-03-15T20:38:08.078Z,9.57
2018-03-15T20:40:09.583Z,9.57
2018-03-15T20:42:11.274Z,9.58
2018-03-15T20:44:13.027Z,9.52
2018-03-15T20:46:14.756Z,9.35
2018-03-15T20:48:16.252Z,9.27
2018-03-15T20:50:17.721Z,9.38
2018-03-15T20:52:19.186Z,9.34
2018-03-15T20:54:20.678Z,9.30
2018-03-15T20:56:22.308Z,9.25
2018-03-15T20:58:24.439Z,9.38
2018-03-15T21:00:26.206Z,9.45
2018-03-15T21:02:27.700Z,9.48
2018-03-15T21:04:29.558Z,9.53
2018-03-15T21:06:31.204Z,9.63
2018-03-15T21:08:32.719Z,9.45
2018-03-15T21:10:34.419Z,9.45
2018-03-15T21:12:36.134Z,9.23
2018-03-15T21:14:37.841Z,9.34
2018-03-15T21:16:39.337Z,9.42
2018-03-15T21:18:42.043Z,9.46
2018-03-15T21:20:43.789Z,9.45
2018-03-15T21:22:45.591Z,9.49
2018-03-15T21:24:47.246Z,9.53
2018-03-15T21:26:48.911Z,9.53
2018-03-15T21:28:50.271Z,9.52
2018-03-15T21:30:51.715Z,9.58
2018-03-15T21:32:53.179Z,9.52
2018-03-15T21:34:54.874Z,9.43
2018-03-15T21:36:56.356Z,9.45
2018-03-15T21:38:57.835Z,9.49
2018-03-15T21:40:59.324Z,9.50
2018-03-15T21:43:00.806Z,9.52
2018-03-15T21:45:02.218Z,9.25
2018-03-15T21:47:03.636Z,9.24
2018-03-15T21:49:05.038Z,9.35
2018-03-15T21:51:06.452Z,9.32
2018-03-15T21:53:07.861Z,9.46
2018-03-15T21:55:09.270Z,9.24
2018-03-15T21:57:10.679Z,9.21
2018-03-15T21:59:12.099Z,9.21
2018-03-15T22:01:13.500Z,9.23
2018-03-15T22:03:14.918Z,9.25
2018-03-15T22:05:16.326Z,9.25
2018-03-15T22:07:17.757Z,9.25
2018-03-15T22:09:19.165Z,9.15
2018-03-15T22:11:20.575Z,9.09
2018-03-15T22:13:21.987Z,9.12
2018-03-15T22:15:23.394Z,9.12
2018-03-15T22:17:24.827Z,9.06
2018-03-15T22:19:26.245Z,9.01
2018-03-15T22:21:27.747Z,8.99
2018-03-15T22:23:29.219Z,8.96
2018-03-15T22:25:30.654Z,8.81
2018-03-15T22:27:32.124Z,9.02
2018-03-15T22:29:33.556Z,9.02
2018-03-15T22:31:35.012Z,9.01
2018-03-15T22:33:36.523Z,8.96
2018-03-15T22:35:38.046Z,8.97
2018-03-15T22:37:39.611Z,8.96
2018-03-15T22:39:41.311Z,8.97
2018-03-15T22:41:42.998Z,8.93
2018-03-15T22:43:44.700Z,8.84
2018-03-15T22:45:46.395Z,8.91
2018-03-15T22:47:48.012Z,8.96
2018-03-15T22:49:49.665Z,9.09
2018-03-15T22:51:51.250Z,9.01
2018-03-15T22:53:52.903Z,8.84
2018-03-15T22:55:54.565Z,8.75
2018-03-15T22:57:56.168Z,8.83
2018-03-15T22:59:57.662Z,8.73
2018-03-15T23:01:59.124Z,8.84
2018-03-15T23:04:00.627Z,8.83
2018-03-15T23:06:02.093Z,8.93
2018-03-15T23:08:03.651Z,8.84
2018-03-15T23:10:05.109Z,8.73
2018-03-15T23:12:06.528Z,8.84
2018-03-15T23:14:07.944Z,8.83
2018-03-15T23:16:09.360Z,8.87
2018-03-15T23:18:10.750Z,8.81
2018-03-15T23:20:12.215Z,8.75
2018-03-15T23:22:13.568Z,8.40
2018-03-15T23:24:14.984Z,8.40
2018-03-15T23:26:16.392Z,8.45
2018-03-15T23:28:17.806Z,8.62
2018-03-15T23:30:19.240Z,8.62
2018-03-15T23:32:20.692Z,8.68
2018-03-15T23:34:22.066Z,8.48
2018-03-15T23:36:23.492Z,8.63
2018-03-15T23:38:25.007Z,8.54
2018-03-15T23:40:26.493Z,8.57
2018-03-15T23:42:27.898Z,8.55
2018-03-15T23:44:29.354Z,8.55
2018-03-15T23:46:30.882Z,8.40
2018-03-15T23:48:32.561Z,8.39
2018-03-15T23:50:34.223Z,8.33
2018-03-15T23:52:35.891Z,8.33
2018-03-15T23:54:37.584Z,8.40
2018-03-15T23:56:39.353Z,8.60
2018-03-15T23:58:40.940Z,8.51
